sensor_id;sensor_type;location;lat;lon;timestamp;P1;durP1;ratioP1;P2;durP2;ratioP2
15167;SDS011;7684;52.150;11.656;2022-07-29T00:02:20;3.43;;;1.40;;
15167;SDS011;7684;52.150;11.656;2022-07-29T00:04:46;2.20;;;1.40;;
15167;SDS011;7684;52.150;11.656;2022-07-29T00:07:13;4.10;;;1.60;;
15167;SDS011;7684;52.150;11.656;2022-07-29T00:09:39;2.13;;;1.30;;
15167;SDS011;7684;52.150;11.656;2022-07-29T00:12:06;4.57;;;1.20;;
15167;SDS011;7684;52.150;11.656;2022-07-29T00:14:32;3.47;;;1.50;;
15167;SDS011;7684;52.150;11.656;2022-07-29T00:16:58;2.07;;;1.20;;
15167;SDS011;7684;52.150;11.656;2022-07-29T00:19:26;2.13;;;1.30;;
15167;SDS011;7684;52.150;11.656;2022-07-29T00:21:52;2.67;;;1.30;;
15167;SDS011;7684;52.150;11.656;2022-07-29T00:24:19;3.60;;;1.47;;
15167;SDS011;7684;52.150;11.656;2022-07-29T00:26:45;2.33;;;1.43;;
15167;SDS011;7684;52.150;11.656;2022-07-29T00:29:11;2.10;;;1.43;;
15167;SDS011;7684;52.150;11.656;2022-07-29T00:31:38;1.77;;;1.33;;
15167;SDS011;7684;52.150;11.656;2022-07-29T00:34:04;2.93;;;1.40;;
15167;SDS011;7684;52.150;11.656;2022-07-29T00:36:53;3.53;;;1.50;;
15167;SDS011;7684;52.150;11.656;2022-07-29T00:39:19;2.83;;;1.67;;
15167;SDS011;7684;52.150;11.656;2022-07-29T00:41:45;2.07;;;1.50;;
15167;SDS011;7684;52.150;11.656;2022-07-29T00:44:11;4.40;;;1.03;;
15167;SDS011;7684;52.150;11.656;2022-07-29T00:46:38;2.80;;;1.33;;
15167;SDS011;7684;52.150;11.656;2022-07-29T00:49:04;2.70;;;1.40;;
15167;SDS011;7684;52.150;11.656;2022-07-29T00:51:32;2.40;;;1.30;;
15167;SDS011;7684;52.150;11.656;2022-07-29T00:54:00;2.20;;;1.17;;
15167;SDS011;7684;52.150;11.656;2022-07-29T00:56:26;4.27;;;1.37;;
15167;SDS011;7684;52.150;11.656;2022-07-29T00:58:55;4.00;;;1.50;;
15167;SDS011;7684;52.150;11.656;2022-07-29T01:01:22;4.13;;;1.63;;
15167;SDS011;7684;52.150;11.656;2022-07-29T01:03:48;3.37;;;1.13;;
15167;SDS011;7684;52.150;11.656;2022-07-29T01:06:15;3.33;;;1.53;;
15167;SDS011;7684;52.150;11.656;2022-07-29T01:08:42;3.50;;;1.90;;
15167;SDS011;7684;52.150;11.656;2022-07-29T01:11:10;3.07;;;1.50;;
15167;SDS011;7684;52.150;11.656;2022-07-29T01:13:37;2.07;;;1.40;;
15167;SDS011;7684;52.150;11.656;2022-07-29T01:16:09;2.77;;;1.80;;
15167;SDS011;7684;52.150;11.656;2022-07-29T01:18:37;3.50;;;1.60;;
15167;SDS011;7684;52.150;11.656;2022-07-29T01:21:20;3.43;;;1.47;;
15167;SDS011;7684;52.150;11.656;2022-07-29T01:23:52;4.13;;;1.60;;
15167;SDS011;7684;52.150;11.656;2022-07-29T01:26:34;3.63;;;1.73;;
15167;SDS011;7684;52.150;11.656;2022-07-29T01:29:04;2.97;;;2.00;;
15167;SDS011;7684;52.150;11.656;2022-07-29T01:31:33;3.47;;;1.57;;
15167;SDS011;7684;52.150;11.656;2022-07-29T01:34:02;3.00;;;1.60;;
15167;SDS011;7684;52.150;11.656;2022-07-29T01:36:30;4.87;;;1.60;;
15167;SDS011;7684;52.150;11.656;2022-07-29T01:38:59;2.70;;;1.60;;
15167;SDS011;7684;52.150;11.656;2022-07-29T01:41:29;2.60;;;1.83;;
15167;SDS011;7684;52.150;11.656;2022-07-29T01:43:58;2.73;;;1.30;;
15167;SDS011;7684;52.150;11.656;2022-07-29T01:46:27;4.83;;;1.40;;
15167;SDS011;7684;52.150;11.656;2022-07-29T01:48:57;3.80;;;1.67;;
15167;SDS011;7684;52.150;11.656;2022-07-29T01:51:25;4.57;;;1.67;;
15167;SDS011;7684;52.150;11.656;2022-07-29T01:53:56;3.60;;;1.67;;
15167;SDS011;7684;52.150;11.656;2022-07-29T01:56:25;2.63;;;2.03;;
15167;SDS011;7684;52.150;11.656;2022-07-29T01:58:54;3.83;;;1.60;;
15167;SDS011;7684;52.150;11.656;2022-07-29T02:01:22;2.17;;;1.80;;
15167;SDS011;7684;52.150;11.656;2022-07-29T02:03:51;4.90;;;2.17;;
15167;SDS011;7684;52.150;11.656;2022-07-29T02:06:19;3.40;;;1.77;;
15167;SDS011;7684;52.150;11.656;2022-07-29T02:08:47;5.07;;;2.07;;
15167;SDS011;7684;52.150;11.656;2022-07-29T02:11:14;4.60;;;1.80;;
15167;SDS011;7684;52.150;11.656;2022-07-29T02:13:40;5.60;;;2.20;;
15167;SDS011;7684;52.150;11.656;2022-07-29T02:16:07;4.50;;;1.90;;
15167;SDS011;7684;52.150;11.656;2022-07-29T02:18:34;4.07;;;1.70;;
15167;SDS011;7684;52.150;11.656;2022-07-29T02:21:03;3.13;;;1.80;;
15167;SDS011;7684;52.150;11.656;2022-07-29T02:23:30;3.97;;;1.63;;
15167;SDS011;7684;52.150;11.656;2022-07-29T02:25:57;5.07;;;1.90;;
15167;SDS011;7684;52.150;11.656;2022-07-29T02:28:24;2.63;;;1.87;;
15167;SDS011;7684;52.150;11.656;2022-07-29T02:30:52;3.57;;;1.70;;
15167;SDS011;7684;52.150;11.656;2022-07-29T02:33:18;3.17;;;2.07;;
15167;SDS011;7684;52.150;11.656;2022-07-29T02:35:46;4.00;;;1.80;;
15167;SDS011;7684;52.150;11.656;2022-07-29T02:38:15;5.73;;;1.90;;
15167;SDS011;7684;52.150;11.656;2022-07-29T02:41:00;5.47;;;2.20;;
15167;SDS011;7684;52.150;11.656;2022-07-29T02:43:27;3.33;;;1.93;;
15167;SDS011;7684;52.150;11.656;2022-07-29T02:45:54;4.90;;;2.47;;
15167;SDS011;7684;52.150;11.656;2022-07-29T02:48:24;4.57;;;2.53;;
15167;SDS011;7684;52.150;11.656;2022-07-29T02:50:54;4.70;;;1.90;;
15167;SDS011;7684;52.150;11.656;2022-07-29T02:53:26;2.20;;;1.70;;
15167;SDS011;7684;52.150;11.656;2022-07-29T02:55:54;3.40;;;2.10;;
15167;SDS011;7684;52.150;11.656;2022-07-29T02:58:24;3.30;;;2.13;;
15167;SDS011;7684;52.150;11.656;2022-07-29T03:00:53;4.30;;;2.10;;
15167;SDS011;7684;52.150;11.656;2022-07-29T03:03:21;5.37;;;1.80;;
15167;SDS011;7684;52.150;11.656;2022-07-29T03:05:48;4.10;;;2.40;;
15167;SDS011;7684;52.150;11.656;2022-07-29T03:08:14;5.27;;;2.30;;
15167;SDS011;7684;52.150;11.656;2022-07-29T03:10:44;4.67;;;2.10;;
15167;SDS011;7684;52.150;11.656;2022-07-29T03:13:11;2.80;;;2.20;;
15167;SDS011;7684;52.150;11.656;2022-07-29T03:15:38;5.60;;;2.20;;
15167;SDS011;7684;52.150;11.656;2022-07-29T03:18:05;4.07;;;2.33;;
15167;SDS011;7684;52.150;11.656;2022-07-29T03:20:33;5.43;;;2.30;;
15167;SDS011;7684;52.150;11.656;2022-07-29T03:22:59;4.70;;;2.40;;
15167;SDS011;7684;52.150;11.656;2022-07-29T03:25:25;4.23;;;2.50;;
15167;SDS011;7684;52.150;11.656;2022-07-29T03:27:54;3.83;;;2.40;;
15167;SDS011;7684;52.150;11.656;2022-07-29T03:30:21;5.63;;;2.33;;
15167;SDS011;7684;52.150;11.656;2022-07-29T03:32:48;7.70;;;2.33;;
15167;SDS011;7684;52.150;11.656;2022-07-29T03:35:15;3.43;;;2.33;;
15167;SDS011;7684;52.150;11.656;2022-07-29T03:37:42;4.53;;;2.47;;
15167;SDS011;7684;52.150;11.656;2022-07-29T03:40:08;3.57;;;2.20;;
15167;SDS011;7684;52.150;11.656;2022-07-29T03:42:38;4.97;;;2.57;;
15167;SDS011;7684;52.150;11.656;2022-07-29T03:45:07;4.43;;;2.57;;
15167;SDS011;7684;52.150;11.656;2022-07-29T03:47:35;4.00;;;2.90;;
15167;SDS011;7684;52.150;11.656;2022-07-29T03:50:05;3.67;;;2.53;;
15167;SDS011;7684;52.150;11.656;2022-07-29T03:52:32;3.33;;;2.60;;
15167;SDS011;7684;52.150;11.656;2022-07-29T03:54:58;6.77;;;2.77;;
15167;SDS011;7684;52.150;11.656;2022-07-29T03:57:25;4.30;;;2.73;;
15167;SDS011;7684;52.150;11.656;2022-07-29T03:59:53;6.27;;;2.97;;
15167;SDS011;7684;52.150;11.656;2022-07-29T04:02:21;7.23;;;3.27;;
15167;SDS011;7684;52.150;11.656;2022-07-29T04:04:48;6.53;;;3.37;;
15167;SDS011;7684;52.150;11.656;2022-07-29T04:07:15;6.83;;;3.40;;
15167;SDS011;7684;52.150;11.656;2022-07-29T04:09:41;3.77;;;2.77;;
15167;SDS011;7684;52.150;11.656;2022-07-29T04:12:08;4.80;;;2.83;;
15167;SDS011;7684;52.150;11.656;2022-07-29T04:14:35;5.30;;;2.77;;
15167;SDS011;7684;52.150;11.656;2022-07-29T04:17:01;5.00;;;2.40;;
15167;SDS011;7684;52.150;11.656;2022-07-29T04:19:29;6.43;;;2.87;;
15167;SDS011;7684;52.150;11.656;2022-07-29T04:21:56;5.67;;;3.13;;
15167;SDS011;7684;52.150;11.656;2022-07-29T04:24:22;5.33;;;2.77;;
15167;SDS011;7684;52.150;11.656;2022-07-29T04:26:49;5.33;;;3.20;;
15167;SDS011;7684;52.150;11.656;2022-07-29T04:29:15;5.13;;;2.80;;
15167;SDS011;7684;52.150;11.656;2022-07-29T04:31:42;4.87;;;3.10;;
15167;SDS011;7684;52.150;11.656;2022-07-29T04:34:08;5.47;;;2.87;;
15167;SDS011;7684;52.150;11.656;2022-07-29T04:36:36;5.97;;;3.30;;
15167;SDS011;7684;52.150;11.656;2022-07-29T04:39:03;4.50;;;3.20;;
15167;SDS011;7684;52.150;11.656;2022-07-29T04:41:29;5.27;;;3.00;;
15167;SDS011;7684;52.150;11.656;2022-07-29T04:43:56;4.87;;;2.90;;
15167;SDS011;7684;52.150;11.656;2022-07-29T04:46:22;7.47;;;3.00;;
15167;SDS011;7684;52.150;11.656;2022-07-29T04:48:48;4.57;;;3.53;;
15167;SDS011;7684;52.150;11.656;2022-07-29T04:51:15;5.37;;;3.37;;
15167;SDS011;7684;52.150;11.656;2022-07-29T04:53:42;5.60;;;3.07;;
15167;SDS011;7684;52.150;11.656;2022-07-29T04:56:09;6.13;;;3.33;;
15167;SDS011;7684;52.150;11.656;2022-07-29T04:58:36;7.07;;;3.50;;
15167;SDS011;7684;52.150;11.656;2022-07-29T05:01:02;10.87;;;3.53;;
15167;SDS011;7684;52.150;11.656;2022-07-29T05:03:28;4.30;;;3.13;;
15167;SDS011;7684;52.150;11.656;2022-07-29T05:05:55;6.17;;;3.50;;
15167;SDS011;7684;52.150;11.656;2022-07-29T05:08:21;6.57;;;2.97;;
15167;SDS011;7684;52.150;11.656;2022-07-29T05:10:49;6.77;;;3.43;;
15167;SDS011;7684;52.150;11.656;2022-07-29T05:13:15;4.03;;;3.43;;
15167;SDS011;7684;52.150;11.656;2022-07-29T05:15:42;6.43;;;3.20;;
15167;SDS011;7684;52.150;11.656;2022-07-29T05:18:08;5.60;;;3.47;;
15167;SDS011;7684;52.150;11.656;2022-07-29T05:20:35;4.57;;;3.10;;
15167;SDS011;7684;52.150;11.656;2022-07-29T05:23:02;6.93;;;3.17;;
15167;SDS011;7684;52.150;11.656;2022-07-29T05:25:28;7.87;;;3.50;;
15167;SDS011;7684;52.150;11.656;2022-07-29T05:27:56;5.50;;;3.17;;
15167;SDS011;7684;52.150;11.656;2022-07-29T05:30:22;5.67;;;3.10;;
15167;SDS011;7684;52.150;11.656;2022-07-29T05:32:49;4.40;;;3.40;;
15167;SDS011;7684;52.150;11.656;2022-07-29T05:35:15;5.87;;;3.50;;
15167;SDS011;7684;52.150;11.656;2022-07-29T05:37:42;4.70;;;2.83;;
15167;SDS011;7684;52.150;11.656;2022-07-29T05:40:08;4.47;;;3.70;;
15167;SDS011;7684;52.150;11.656;2022-07-29T05:42:35;4.53;;;2.90;;
15167;SDS011;7684;52.150;11.656;2022-07-29T05:45:03;5.07;;;2.90;;
15167;SDS011;7684;52.150;11.656;2022-07-29T05:47:30;8.13;;;3.83;;
15167;SDS011;7684;52.150;11.656;2022-07-29T05:49:56;6.47;;;3.33;;
15167;SDS011;7684;52.150;11.656;2022-07-29T05:52:22;7.30;;;3.27;;
15167;SDS011;7684;52.150;11.656;2022-07-29T05:54:51;5.13;;;3.40;;
15167;SDS011;7684;52.150;11.656;2022-07-29T05:57:18;6.67;;;3.20;;
15167;SDS011;7684;52.150;11.656;2022-07-29T05:59:45;7.63;;;3.67;;
15167;SDS011;7684;52.150;11.656;2022-07-29T06:02:12;5.47;;;3.30;;
15167;SDS011;7684;52.150;11.656;2022-07-29T06:04:39;5.00;;;3.33;;
15167;SDS011;7684;52.150;11.656;2022-07-29T06:07:05;4.10;;;3.30;;
15167;SDS011;7684;52.150;11.656;2022-07-29T06:09:32;6.03;;;3.00;;
15167;SDS011;7684;52.150;11.656;2022-07-29T06:12:00;6.87;;;3.47;;
15167;SDS011;7684;52.150;11.656;2022-07-29T06:14:26;6.37;;;3.00;;
15167;SDS011;7684;52.150;11.656;2022-07-29T06:16:53;5.70;;;3.30;;
15167;SDS011;7684;52.150;11.656;2022-07-29T06:19:21;4.97;;;2.97;;
15167;SDS011;7684;52.150;11.656;2022-07-29T06:21:48;5.63;;;3.30;;
15167;SDS011;7684;52.150;11.656;2022-07-29T06:24:15;3.97;;;2.80;;
15167;SDS011;7684;52.150;11.656;2022-07-29T06:26:42;3.97;;;3.10;;
15167;SDS011;7684;52.150;11.656;2022-07-29T06:29:09;6.77;;;3.13;;
15167;SDS011;7684;52.150;11.656;2022-07-29T06:31:36;5.87;;;3.30;;
15167;SDS011;7684;52.150;11.656;2022-07-29T06:34:03;5.50;;;3.07;;
15167;SDS011;7684;52.150;11.656;2022-07-29T06:36:33;6.27;;;3.20;;
15167;SDS011;7684;52.150;11.656;2022-07-29T06:39:00;6.60;;;2.80;;
15167;SDS011;7684;52.150;11.656;2022-07-29T06:41:26;3.63;;;3.23;;
15167;SDS011;7684;52.150;11.656;2022-07-29T06:43:53;6.53;;;2.87;;
15167;SDS011;7684;52.150;11.656;2022-07-29T06:46:19;5.73;;;3.07;;
15167;SDS011;7684;52.150;11.656;2022-07-29T06:48:46;7.67;;;3.00;;
15167;SDS011;7684;52.150;11.656;2022-07-29T06:51:13;5.70;;;3.00;;
15167;SDS011;7684;52.150;11.656;2022-07-29T06:53:41;4.90;;;3.00;;
15167;SDS011;7684;52.150;11.656;2022-07-29T06:56:07;7.10;;;3.50;;
15167;SDS011;7684;52.150;11.656;2022-07-29T06:58:34;6.50;;;3.30;;
15167;SDS011;7684;52.150;11.656;2022-07-29T07:01:02;9.93;;;3.07;;
15167;SDS011;7684;52.150;11.656;2022-07-29T07:03:29;7.53;;;3.03;;
15167;SDS011;7684;52.150;11.656;2022-07-29T07:05:55;7.20;;;3.53;;
15167;SDS011;7684;52.150;11.656;2022-07-29T07:08:22;7.60;;;2.97;;
15167;SDS011;7684;52.150;11.656;2022-07-29T07:10:51;6.77;;;3.10;;
15167;SDS011;7684;52.150;11.656;2022-07-29T07:13:17;6.57;;;2.77;;
15167;SDS011;7684;52.150;11.656;2022-07-29T07:15:44;6.97;;;2.97;;
15167;SDS011;7684;52.150;11.656;2022-07-29T07:18:12;7.70;;;3.03;;
15167;SDS011;7684;52.150;11.656;2022-07-29T07:20:39;6.20;;;2.93;;
15167;SDS011;7684;52.150;11.656;2022-07-29T07:23:05;6.13;;;2.80;;
15167;SDS011;7684;52.150;11.656;2022-07-29T07:25:32;7.77;;;3.30;;
15167;SDS011;7684;52.150;11.656;2022-07-29T07:27:59;6.87;;;3.13;;
15167;SDS011;7684;52.150;11.656;2022-07-29T07:30:26;4.67;;;2.93;;
15167;SDS011;7684;52.150;11.656;2022-07-29T07:32:53;6.03;;;3.20;;
15167;SDS011;7684;52.150;11.656;2022-07-29T07:35:19;6.45;;;3.20;;
15167;SDS011;7684;52.150;11.656;2022-07-29T07:37:46;5.90;;;2.83;;
15167;SDS011;7684;52.150;11.656;2022-07-29T07:40:12;5.57;;;3.10;;
15167;SDS011;7684;52.150;11.656;2022-07-29T07:42:39;3.47;;;2.93;;
15167;SDS011;7684;52.150;11.656;2022-07-29T07:45:07;6.17;;;2.60;;
15167;SDS011;7684;52.150;11.656;2022-07-29T07:47:35;6.73;;;3.33;;
15167;SDS011;7684;52.150;11.656;2022-07-29T07:50:02;5.30;;;3.13;;
15167;SDS011;7684;52.150;11.656;2022-07-29T07:52:28;4.50;;;2.97;;
15167;SDS011;7684;52.150;11.656;2022-07-29T07:54:55;6.63;;;3.50;;
15167;SDS011;7684;52.150;11.656;2022-07-29T07:57:21;7.53;;;3.30;;
15167;SDS011;7684;52.150;11.656;2022-07-29T07:59:48;7.27;;;3.40;;
15167;SDS011;7684;52.150;11.656;2022-07-29T08:02:15;8.10;;;3.10;;
15167;SDS011;7684;52.150;11.656;2022-07-29T08:04:42;5.87;;;3.40;;
15167;SDS011;7684;52.150;11.656;2022-07-29T08:07:08;8.35;;;3.10;;
15167;SDS011;7684;52.150;11.656;2022-07-29T08:09:35;4.72;;;3.40;;
15167;SDS011;7684;52.150;11.656;2022-07-29T08:12:01;5.00;;;3.28;;
15167;SDS011;7684;52.150;11.656;2022-07-29T08:14:29;5.15;;;3.00;;
15167;SDS011;7684;52.150;11.656;2022-07-29T08:16:55;5.68;;;2.58;;
15167;SDS011;7684;52.150;11.656;2022-07-29T08:19:23;4.38;;;2.88;;
15167;SDS011;7684;52.150;11.656;2022-07-29T08:21:49;6.97;;;2.92;;
15167;SDS011;7684;52.150;11.656;2022-07-29T08:24:17;6.00;;;3.00;;
15167;SDS011;7684;52.150;11.656;2022-07-29T08:27:01;6.78;;;2.90;;
15167;SDS011;7684;52.150;11.656;2022-07-29T08:29:27;6.70;;;3.50;;
15167;SDS011;7684;52.150;11.656;2022-07-29T08:31:53;7.00;;;3.30;;
15167;SDS011;7684;52.150;11.656;2022-07-29T08:34:20;6.47;;;3.28;;
15167;SDS011;7684;52.150;11.656;2022-07-29T08:36:48;4.45;;;2.90;;
15167;SDS011;7684;52.150;11.656;2022-07-29T08:39:15;10.05;;;2.83;;
15167;SDS011;7684;52.150;11.656;2022-07-29T08:41:41;5.60;;;2.70;;
15167;SDS011;7684;52.150;11.656;2022-07-29T08:44:07;3.35;;;2.50;;
15167;SDS011;7684;52.150;11.656;2022-07-29T08:46:37;4.93;;;2.67;;
15167;SDS011;7684;52.150;11.656;2022-07-29T08:49:03;6.47;;;2.65;;
15167;SDS011;7684;52.150;11.656;2022-07-29T08:51:29;4.35;;;3.00;;
15167;SDS011;7684;52.150;11.656;2022-07-29T08:53:58;6.30;;;2.97;;
15167;SDS011;7684;52.150;11.656;2022-07-29T08:56:24;5.20;;;2.60;;
15167;SDS011;7684;52.150;11.656;2022-07-29T08:58:51;5.45;;;2.85;;
15167;SDS011;7684;52.150;11.656;2022-07-29T09:01:21;6.03;;;2.75;;
15167;SDS011;7684;52.150;11.656;2022-07-29T09:03:47;4.55;;;2.65;;
15167;SDS011;7684;52.150;11.656;2022-07-29T09:06:14;4.53;;;2.65;;
15167;SDS011;7684;52.150;11.656;2022-07-29T09:08:41;5.28;;;2.65;;
15167;SDS011;7684;52.150;11.656;2022-07-29T09:11:09;5.50;;;2.60;;
15167;SDS011;7684;52.150;11.656;2022-07-29T09:13:36;3.30;;;2.60;;
15167;SDS011;7684;52.150;11.656;2022-07-29T09:16:03;5.03;;;2.25;;
15167;SDS011;7684;52.150;11.656;2022-07-29T09:18:36;4.47;;;2.30;;
15167;SDS011;7684;52.150;11.656;2022-07-29T09:21:02;5.40;;;2.17;;
15167;SDS011;7684;52.150;11.656;2022-07-29T09:24:03;3.65;;;2.10;;
15167;SDS011;7684;52.150;11.656;2022-07-29T09:26:31;3.78;;;2.30;;
15167;SDS011;7684;52.150;11.656;2022-07-29T09:28:58;5.32;;;2.30;;
15167;SDS011;7684;52.150;11.656;2022-07-29T09:31:32;4.43;;;2.13;;
15167;SDS011;7684;52.150;11.656;2022-07-29T09:33:59;7.57;;;2.17;;
15167;SDS011;7684;52.150;11.656;2022-07-29T09:36:26;3.38;;;1.92;;
15167;SDS011;7684;52.150;11.656;2022-07-29T09:38:57;5.63;;;2.28;;
15167;SDS011;7684;52.150;11.656;2022-07-29T09:41:23;3.67;;;2.00;;
15167;SDS011;7684;52.150;11.656;2022-07-29T09:43:55;4.07;;;2.10;;
15167;SDS011;7684;52.150;11.656;2022-07-29T09:46:21;5.00;;;2.15;;
15167;SDS011;7684;52.150;11.656;2022-07-29T09:51:29;3.35;;;1.73;;
15167;SDS011;7684;52.150;11.656;2022-07-29T09:53:55;5.13;;;2.10;;
15167;SDS011;7684;52.150;11.656;2022-07-29T09:56:28;4.57;;;1.90;;
15167;SDS011;7684;52.150;11.656;2022-07-29T09:59:06;4.80;;;2.00;;
15167;SDS011;7684;52.150;11.656;2022-07-29T10:01:32;5.40;;;1.90;;
15167;SDS011;7684;52.150;11.656;2022-07-29T10:03:58;2.78;;;1.70;;
15167;SDS011;7684;52.150;11.656;2022-07-29T10:06:25;3.47;;;2.03;;
15167;SDS011;7684;52.150;11.656;2022-07-29T10:08:51;2.88;;;1.92;;
15167;SDS011;7684;52.150;11.656;2022-07-29T10:11:18;3.60;;;1.60;;
15167;SDS011;7684;52.150;11.656;2022-07-29T10:13:45;2.83;;;1.60;;
15167;SDS011;7684;52.150;11.656;2022-07-29T10:16:13;6.88;;;1.83;;
15167;SDS011;7684;52.150;11.656;2022-07-29T10:18:41;4.20;;;1.80;;
15167;SDS011;7684;52.150;11.656;2022-07-29T10:21:08;3.28;;;2.30;;
15167;SDS011;7684;52.150;11.656;2022-07-29T10:23:35;4.32;;;2.40;;
15167;SDS011;7684;52.150;11.656;2022-07-29T10:26:02;4.20;;;2.10;;
15167;SDS011;7684;52.150;11.656;2022-07-29T10:28:29;3.60;;;2.47;;
15167;SDS011;7684;52.150;11.656;2022-07-29T10:30:58;3.63;;;1.40;;
15167;SDS011;7684;52.150;11.656;2022-07-29T10:33:32;3.20;;;1.73;;
15167;SDS011;7684;52.150;11.656;2022-07-29T10:36:08;2.25;;;1.90;;
15167;SDS011;7684;52.150;11.656;2022-07-29T10:38:43;5.53;;;1.40;;
15167;SDS011;7684;52.150;11.656;2022-07-29T10:41:20;1.67;;;1.38;;
15167;SDS011;7684;52.150;11.656;2022-07-29T10:43:53;3.83;;;1.48;;
15167;SDS011;7684;52.150;11.656;2022-07-29T10:46:20;2.17;;;1.40;;
15167;SDS011;7684;52.150;11.656;2022-07-29T10:49:05;3.97;;;1.63;;
15167;SDS011;7684;52.150;11.656;2022-07-29T10:54:13;3.08;;;1.20;;
15167;SDS011;7684;52.150;11.656;2022-07-29T10:56:40;4.85;;;1.70;;
15167;SDS011;7684;52.150;11.656;2022-07-29T10:59:22;2.42;;;1.15;;
15167;SDS011;7684;52.150;11.656;2022-07-29T11:01:50;3.63;;;1.50;;
15167;SDS011;7684;52.150;11.656;2022-07-29T11:04:17;3.95;;;1.63;;
15167;SDS011;7684;52.150;11.656;2022-07-29T11:07:07;3.03;;;1.33;;
15167;SDS011;7684;52.150;11.656;2022-07-29T11:09:33;5.00;;;1.35;;
15167;SDS011;7684;52.150;11.656;2022-07-29T11:12:00;6.90;;;1.52;;
15167;SDS011;7684;52.150;11.656;2022-07-29T11:17:14;2.13;;;1.30;;
15167;SDS011;7684;52.150;11.656;2022-07-29T11:19:41;2.15;;;1.50;;
15167;SDS011;7684;52.150;11.656;2022-07-29T11:22:08;3.63;;;1.33;;
15167;SDS011;7684;52.150;11.656;2022-07-29T11:24:35;1.42;;;1.05;;
15167;SDS011;7684;52.150;11.656;2022-07-29T11:27:11;1.83;;;1.10;;
15167;SDS011;7684;52.150;11.656;2022-07-29T11:29:39;3.58;;;1.42;;
15167;SDS011;7684;52.150;11.656;2022-07-29T11:32:08;3.65;;;1.30;;
15167;SDS011;7684;52.150;11.656;2022-07-29T11:34:35;2.05;;;1.30;;
15167;SDS011;7684;52.150;11.656;2022-07-29T11:37:18;3.33;;;1.20;;
15167;SDS011;7684;52.150;11.656;2022-07-29T11:39:46;2.08;;;1.38;;
15167;SDS011;7684;52.150;11.656;2022-07-29T11:42:36;1.52;;;1.33;;
15167;SDS011;7684;52.150;11.656;2022-07-29T11:45:03;4.32;;;1.65;;
15167;SDS011;7684;52.150;11.656;2022-07-29T11:47:32;4.05;;;1.23;;
15167;SDS011;7684;52.150;11.656;2022-07-29T11:50:00;2.63;;;1.20;;
15167;SDS011;7684;52.150;11.656;2022-07-29T11:52:32;2.90;;;1.30;;
15167;SDS011;7684;52.150;11.656;2022-07-29T11:54:58;2.17;;;1.30;;
15167;SDS011;7684;52.150;11.656;2022-07-29T11:57:27;2.38;;;1.38;;
15167;SDS011;7684;52.150;11.656;2022-07-29T11:59:54;2.35;;;1.30;;
15167;SDS011;7684;52.150;11.656;2022-07-29T12:02:21;3.30;;;1.30;;
15167;SDS011;7684;52.150;11.656;2022-07-29T12:04:48;4.25;;;1.20;;
15167;SDS011;7684;52.150;11.656;2022-07-29T12:07:14;1.50;;;1.30;;
15167;SDS011;7684;52.150;11.656;2022-07-29T12:09:42;1.85;;;1.30;;
15167;SDS011;7684;52.150;11.656;2022-07-29T12:12:15;2.22;;;1.40;;
15167;SDS011;7684;52.150;11.656;2022-07-29T12:14:42;2.72;;;1.40;;
15167;SDS011;7684;52.150;11.656;2022-07-29T12:17:24;3.08;;;1.23;;
15167;SDS011;7684;52.150;11.656;2022-07-29T12:19:51;1.90;;;1.38;;
15167;SDS011;7684;52.150;11.656;2022-07-29T12:22:24;2.35;;;1.52;;
15167;SDS011;7684;52.150;11.656;2022-07-29T12:24:51;4.78;;;1.70;;
15167;SDS011;7684;52.150;11.656;2022-07-29T12:27:18;2.92;;;1.50;;
15167;SDS011;7684;52.150;11.656;2022-07-29T12:29:44;3.75;;;1.85;;
15167;SDS011;7684;52.150;11.656;2022-07-29T12:32:11;7.03;;;1.98;;
15167;SDS011;7684;52.150;11.656;2022-07-29T12:34:37;3.00;;;1.38;;
15167;SDS011;7684;52.150;11.656;2022-07-29T12:37:04;2.97;;;1.50;;
15167;SDS011;7684;52.150;11.656;2022-07-29T12:39:34;2.00;;;1.35;;
15167;SDS011;7684;52.150;11.656;2022-07-29T12:42:11;3.83;;;1.50;;
15167;SDS011;7684;52.150;11.656;2022-07-29T12:44:44;2.72;;;1.45;;
15167;SDS011;7684;52.150;11.656;2022-07-29T12:47:10;3.08;;;1.65;;
15167;SDS011;7684;52.150;11.656;2022-07-29T12:49:37;1.92;;;1.23;;
15167;SDS011;7684;52.150;11.656;2022-07-29T12:54:46;3.15;;;1.30;;
15167;SDS011;7684;52.150;11.656;2022-07-29T12:57:14;11.35;;;2.40;;
15167;SDS011;7684;52.150;11.656;2022-07-29T12:59:40;4.13;;;1.38;;
15167;SDS011;7684;52.150;11.656;2022-07-29T13:02:19;2.95;;;1.52;;
15167;SDS011;7684;52.150;11.656;2022-07-29T13:04:54;2.97;;;1.38;;
15167;SDS011;7684;52.150;11.656;2022-07-29T13:07:23;2.20;;;1.40;;
15167;SDS011;7684;52.150;11.656;2022-07-29T13:09:50;6.30;;;1.98;;
15167;SDS011;7684;52.150;11.656;2022-07-29T13:12:18;4.35;;;1.73;;
15167;SDS011;7684;52.150;11.656;2022-07-29T13:14:46;3.80;;;1.65;;
15167;SDS011;7684;52.150;11.656;2022-07-29T13:17:13;4.25;;;1.95;;
15167;SDS011;7684;52.150;11.656;2022-07-29T13:19:41;3.45;;;1.50;;
15167;SDS011;7684;52.150;11.656;2022-07-29T13:22:08;3.53;;;1.50;;
15167;SDS011;7684;52.150;11.656;2022-07-29T13:24:46;3.35;;;1.70;;
15167;SDS011;7684;52.150;11.656;2022-07-29T13:27:13;3.03;;;1.45;;
15167;SDS011;7684;52.150;11.656;2022-07-29T13:29:41;6.28;;;1.65;;
15167;SDS011;7684;52.150;11.656;2022-07-29T13:32:07;2.58;;;1.40;;
15167;SDS011;7684;52.150;11.656;2022-07-29T13:34:34;4.13;;;1.70;;
15167;SDS011;7684;52.150;11.656;2022-07-29T13:37:00;2.65;;;1.38;;
15167;SDS011;7684;52.150;11.656;2022-07-29T13:39:26;2.60;;;1.40;;
15167;SDS011;7684;52.150;11.656;2022-07-29T13:41:53;2.38;;;1.40;;
15167;SDS011;7684;52.150;11.656;2022-07-29T13:44:19;2.03;;;1.70;;
15167;SDS011;7684;52.150;11.656;2022-07-29T13:46:47;3.03;;;1.45;;
15167;SDS011;7684;52.150;11.656;2022-07-29T13:49:13;2.45;;;1.27;;
15167;SDS011;7684;52.150;11.656;2022-07-29T13:51:39;3.33;;;1.42;;
15167;SDS011;7684;52.150;11.656;2022-07-29T13:54:05;3.28;;;1.30;;
15167;SDS011;7684;52.150;11.656;2022-07-29T13:56:32;2.20;;;1.38;;
15167;SDS011;7684;52.150;11.656;2022-07-29T13:58:59;2.83;;;1.17;;
15167;SDS011;7684;52.150;11.656;2022-07-29T14:01:25;2.47;;;1.52;;
15167;SDS011;7684;52.150;11.656;2022-07-29T14:03:53;3.08;;;1.35;;
15167;SDS011;7684;52.150;11.656;2022-07-29T14:06:20;4.40;;;1.50;;
15167;SDS011;7684;52.150;11.656;2022-07-29T14:08:46;4.32;;;1.38;;
15167;SDS011;7684;52.150;11.656;2022-07-29T14:11:12;2.28;;;1.50;;
15167;SDS011;7684;52.150;11.656;2022-07-29T14:13:39;1.88;;;1.35;;
15167;SDS011;7684;52.150;11.656;2022-07-29T14:16:05;3.45;;;1.40;;
15167;SDS011;7684;52.150;11.656;2022-07-29T14:18:32;2.97;;;1.17;;
15167;SDS011;7684;52.150;11.656;2022-07-29T14:20:59;2.38;;;1.35;;
15167;SDS011;7684;52.150;11.656;2022-07-29T14:23:26;4.32;;;1.67;;
15167;SDS011;7684;52.150;11.656;2022-07-29T14:25:52;2.97;;;1.40;;
15167;SDS011;7684;52.150;11.656;2022-07-29T14:28:19;1.40;;;1.15;;
15167;SDS011;7684;52.150;11.656;2022-07-29T14:30:45;3.30;;;1.52;;
15167;SDS011;7684;52.150;11.656;2022-07-29T14:33:11;2.63;;;1.40;;
15167;SDS011;7684;52.150;11.656;2022-07-29T14:35:38;2.17;;;1.58;;
15167;SDS011;7684;52.150;11.656;2022-07-29T14:38:05;2.67;;;1.40;;
15167;SDS011;7684;52.150;11.656;2022-07-29T14:40:32;5.00;;;1.73;;
15167;SDS011;7684;52.150;11.656;2022-07-29T14:42:58;2.83;;;1.38;;
15167;SDS011;7684;52.150;11.656;2022-07-29T14:45:24;1.92;;;1.27;;
15167;SDS011;7684;52.150;11.656;2022-07-29T14:47:50;2.55;;;1.70;;
15167;SDS011;7684;52.150;11.656;2022-07-29T14:50:17;2.30;;;1.52;;
15167;SDS011;7684;52.150;11.656;2022-07-29T14:52:44;1.58;;;1.23;;
15167;SDS011;7684;52.150;11.656;2022-07-29T14:55:11;4.22;;;1.42;;
15167;SDS011;7684;52.150;11.656;2022-07-29T14:57:38;5.88;;;1.45;;
15167;SDS011;7684;52.150;11.656;2022-07-29T15:00:05;4.32;;;1.45;;
15167;SDS011;7684;52.150;11.656;2022-07-29T15:02:32;2.20;;;1.60;;
15167;SDS011;7684;52.150;11.656;2022-07-29T15:04:59;2.88;;;1.63;;